sensor_id;sensor_type;location;lat;lon;timestamp;temperature;humidity
53520;DHT22;39397;53.204;5.778;2023-11-22T00:02:02;5.90;99.90
53520;DHT22;39397;53.204;5.778;2023-11-22T00:07:18;4.90;99.90
53520;DHT22;39397;53.204;5.778;2023-11-22T00:09:55;3.20;99.90
53520;DHT22;39397;53.204;5.778;2023-11-22T00:12:25;5.00;99.90
53520;DHT22;39397;53.204;5.778;2023-11-22T00:15:04;4.60;99.90
53520;DHT22;39397;53.204;5.778;2023-11-22T00:17:46;4.70;99.90
53520;DHT22;39397;53.204;5.778;2023-11-22T00:20:16;4.70;99.90
53520;DHT22;39397;53.204;5.778;2023-11-22T00:22:53;4.50;99.90
53520;DHT22;39397;53.204;5.778;2023-11-22T00:25:19;4.50;99.90
53520;DHT22;39397;53.204;5.778;2023-11-22T00:28:07;5.00;99.90
53520;DHT22;39397;53.204;5.778;2023-11-22T00:30:38;5.00;99.90
53520;DHT22;39397;53.204;5.778;2023-11-22T00:33:12;3.80;99.90
53520;DHT22;39397;53.204;5.778;2023-11-22T00:35:46;5.10;99.90
53520;DHT22;39397;53.204;5.778;2023-11-22T00:38:31;5.10;99.90
53520;DHT22;39397;53.204;5.778;2023-11-22T00:41:01;3.40;99.90
53520;DHT22;39397;53.204;5.778;2023-11-22T00:44:02;4.60;99.90
53520;DHT22;39397;53.204;5.778;2023-11-22T00:46:45;4.60;99.90
53520;DHT22;39397;53.204;5.778;2023-11-22T00:49:11;5.10;99.90
53520;DHT22;39397;53.204;5.778;2023-11-22T00:51:39;4.50;99.90
53520;DHT22;39397;53.204;5.778;2023-11-22T00:54:15;2.30;99.90
53520;DHT22;39397;53.204;5.778;2023-11-22T00:56:44;4.70;99.90
53520;DHT22;39397;53.204;5.778;2023-11-22T00:59:15;4.20;99.90
53520;DHT22;39397;53.204;5.778;2023-11-22T01:01:45;4.30;99.90
53520;DHT22;39397;53.204;5.778;2023-11-22T01:04:26;5.80;99.90
53520;DHT22;39397;53.204;5.778;2023-11-22T01:06:59;4.60;99.90
53520;DHT22;39397;53.204;5.778;2023-11-22T01:09:37;4.80;99.90
53520;DHT22;39397;53.204;5.778;2023-11-22T01:12:16;4.10;99.90
53520;DHT22;39397;53.204;5.778;2023-11-22T01:14:43;5.00;99.90
53520;DHT22;39397;53.204;5.778;2023-11-22T01:17:21;3.30;99.90
53520;DHT22;39397;53.204;5.778;2023-11-22T01:19:50;6.40;99.90
53520;DHT22;39397;53.204;5.778;2023-11-22T01:22:35;3.90;99.90
53520;DHT22;39397;53.204;5.778;2023-11-22T01:25:11;3.90;99.90
53520;DHT22;39397;53.204;5.778;2023-11-22T01:27:51;2.40;99.90
53520;DHT22;39397;53.204;5.778;2023-11-22T01:30:21;5.30;99.90
53520;DHT22;39397;53.204;5.778;2023-11-22T01:32:56;2.90;99.90
53520;DHT22;39397;53.204;5.778;2023-11-22T01:35:43;4.80;99.90
53520;DHT22;39397;53.204;5.778;2023-11-22T01:38:12;4.50;99.90
53520;DHT22;39397;53.204;5.778;2023-11-22T01:40:46;4.40;99.90
53520;DHT22;39397;53.204;5.778;2023-11-22T01:43:31;5.80;99.90
53520;DHT22;39397;53.204;5.778;2023-11-22T01:46:05;4.60;99.90
53520;DHT22;39397;53.204;5.778;2023-11-22T01:48:36;5.70;99.90
53520;DHT22;39397;53.204;5.778;2023-11-22T01:51:07;4.60;99.90
53520;DHT22;39397;53.204;5.778;2023-11-22T01:53:38;4.60;99.90
53520;DHT22;39397;53.204;5.778;2023-11-22T01:56:04;6.60;99.90
53520;DHT22;39397;53.204;5.778;2023-11-22T01:58:36;5.30;99.90
53520;DHT22;39397;53.204;5.778;2023-11-22T02:01:03;4.60;99.90
53520;DHT22;39397;53.204;5.778;2023-11-22T02:03:45;4.20;99.90
53520;DHT22;39397;53.204;5.778;2023-11-22T02:06:15;3.00;99.90
53520;DHT22;39397;53.204;5.778;2023-11-22T02:08:57;4.40;99.90
53520;DHT22;39397;53.204;5.778;2023-11-22T02:11:28;4.70;99.90
53520;DHT22;39397;53.204;5.778;2023-11-22T02:13:57;5.20;99.90
53520;DHT22;39397;53.204;5.778;2023-11-22T02:16:39;4.90;99.90
53520;DHT22;39397;53.204;5.778;2023-11-22T02:19:15;4.70;99.90
53520;DHT22;39397;53.204;5.778;2023-11-22T02:21:50;4.70;99.90
53520;DHT22;39397;53.204;5.778;2023-11-22T02:24:24;5.30;99.90
53520;DHT22;39397;53.204;5.778;2023-11-22T02:26:56;4.30;99.90
53520;DHT22;39397;53.204;5.778;2023-11-22T02:29:30;5.40;99.90
53520;DHT22;39397;53.204;5.778;2023-11-22T02:31:59;4.00;99.90
53520;DHT22;39397;53.204;5.778;2023-11-22T02:34:26;6.40;99.90
53520;DHT22;39397;53.204;5.778;2023-11-22T02:36:59;4.60;99.90
53520;DHT22;39397;53.204;5.778;2023-11-22T02:46:17;5.20;99.90
53520;DHT22;39397;53.204;5.778;2023-11-22T02:49:02;4.20;99.90
53520;DHT22;39397;53.204;5.778;2023-11-22T02:51:31;4.70;99.90
53520;DHT22;39397;53.204;5.778;2023-11-22T02:53:59;5.30;99.90
53520;DHT22;39397;53.204;5.778;2023-11-22T02:56:25;4.90;99.90
53520;DHT22;39397;53.204;5.778;2023-11-22T02:58:55;4.90;99.90
53520;DHT22;39397;53.204;5.778;2023-11-22T03:01:33;4.70;99.90
53520;DHT22;39397;53.204;5.778;2023-11-22T03:04:19;5.20;99.90
53520;DHT22;39397;53.204;5.778;2023-11-22T03:07:23;2.40;99.90
53520;DHT22;39397;53.204;5.778;2023-11-22T03:13:47;6.50;99.90
53520;DHT22;39397;53.204;5.778;2023-11-22T03:16:45;3.60;99.90
53520;DHT22;39397;53.204;5.778;2023-11-22T03:19:29;4.80;99.90
53520;DHT22;39397;53.204;5.778;2023-11-22T03:22:42;4.90;99.90
53520;DHT22;39397;53.204;5.778;2023-11-22T03:34:46;4.50;99.90
53520;DHT22;39397;53.204;5.778;2023-11-22T03:40:52;2.70;99.90
53520;DHT22;39397;53.204;5.778;2023-11-22T03:47:27;4.80;99.90
53520;DHT22;39397;53.204;5.778;2023-11-22T03:50:11;3.00;99.90
53520;DHT22;39397;53.204;5.778;2023-11-22T03:52:51;4.80;99.90
53520;DHT22;39397;53.204;5.778;2023-11-22T03:55:58;4.30;99.90
53520;DHT22;39397;53.204;5.778;2023-11-22T03:58:26;2.80;99.90
53520;DHT22;39397;53.204;5.778;2023-11-22T04:01:03;3.90;99.90
53520;DHT22;39397;53.204;5.778;2023-11-22T04:03:48;4.40;99.90
53520;DHT22;39397;53.204;5.778;2023-11-22T04:06:25;3.80;99.90
53520;DHT22;39397;53.204;5.778;2023-11-22T04:09:00;1.80;99.90
53520;DHT22;39397;53.204;5.778;2023-11-22T04:11:38;4.00;99.90
53520;DHT22;39397;53.204;5.778;2023-11-22T04:14:06;5.60;99.90
53520;DHT22;39397;53.204;5.778;2023-11-22T04:16:39;5.40;99.90
53520;DHT22;39397;53.204;5.778;2023-11-22T04:19:10;4.10;99.90
53520;DHT22;39397;53.204;5.778;2023-11-22T04:21:39;4.30;99.90
53520;DHT22;39397;53.204;5.778;2023-11-22T04:24:08;6.20;99.90
53520;DHT22;39397;53.204;5.778;2023-11-22T04:26:37;3.40;99.90
53520;DHT22;39397;53.204;5.778;2023-11-22T04:29:06;3.80;99.90
53520;DHT22;39397;53.204;5.778;2023-11-22T04:31:32;4.50;99.90
53520;DHT22;39397;53.204;5.778;2023-11-22T04:34:00;4.50;99.90
53520;DHT22;39397;53.204;5.778;2023-11-22T04:36:28;4.70;99.90
53520;DHT22;39397;53.204;5.778;2023-11-22T04:38:55;4.80;99.90
53520;DHT22;39397;53.204;5.778;2023-11-22T04:41:23;2.20;99.90
53520;DHT22;39397;53.204;5.778;2023-11-22T04:44:15;4.70;99.90
53520;DHT22;39397;53.204;5.778;2023-11-22T04:46:41;2.60;99.90
53520;DHT22;39397;53.204;5.778;2023-11-22T04:49:12;5.10;99.90
53520;DHT22;39397;53.204;5.778;2023-11-22T04:51:50;6.10;99.90
53520;DHT22;39397;53.204;5.778;2023-11-22T04:54:20;6.70;99.90
53520;DHT22;39397;53.204;5.778;2023-11-22T04:56:46;4.80;99.90
53520;DHT22;39397;53.204;5.778;2023-11-22T04:59:13;4.40;99.90
53520;DHT22;39397;53.204;5.778;2023-11-22T05:01:43;4.90;99.90
53520;DHT22;39397;53.204;5.778;2023-11-22T05:04:15;5.20;99.90
53520;DHT22;39397;53.204;5.778;2023-11-22T05:06:48;5.10;99.90
53520;DHT22;39397;53.204;5.778;2023-11-22T05:09:16;4.80;99.90
53520;DHT22;39397;53.204;5.778;2023-11-22T05:11:51;4.40;99.90
53520;DHT22;39397;53.204;5.778;2023-11-22T05:14:32;5.20;99.90
53520;DHT22;39397;53.204;5.778;2023-11-22T05:16:59;3.10;99.90
53520;DHT22;39397;53.204;5.778;2023-11-22T05:19:26;2.60;99.90
53520;DHT22;39397;53.204;5.778;2023-11-22T05:21:52;5.20;99.90
53520;DHT22;39397;53.204;5.778;2023-11-22T05:24:21;2.20;99.90
53520;DHT22;39397;53.204;5.778;2023-11-22T05:26:49;4.00;99.90
53520;DHT22;39397;53.204;5.778;2023-11-22T05:29:16;5.00;99.90
53520;DHT22;39397;53.204;5.778;2023-11-22T05:31:42;4.60;99.90
53520;DHT22;39397;53.204;5.778;2023-11-22T05:34:08;4.40;99.90
53520;DHT22;39397;53.204;5.778;2023-11-22T05:36:34;6.50;99.90
53520;DHT22;39397;53.204;5.778;2023-11-22T05:39:02;5.30;99.90
53520;DHT22;39397;53.204;5.778;2023-11-22T05:41:35;6.00;99.90
53520;DHT22;39397;53.204;5.778;2023-11-22T05:44:03;6.60;99.90
53520;DHT22;39397;53.204;5.778;2023-11-22T05:46:39;4.40;99.90
53520;DHT22;39397;53.204;5.778;2023-11-22T05:49:22;4.50;99.90
53520;DHT22;39397;53.204;5.778;2023-11-22T05:51:50;4.40;99.90
53520;DHT22;39397;53.204;5.778;2023-11-22T05:54:16;4.30;99.90
53520;DHT22;39397;53.204;5.778;2023-11-22T05:56:48;5.50;99.90
53520;DHT22;39397;53.204;5.778;2023-11-22T05:59:17;5.70;99.90
53520;DHT22;39397;53.204;5.778;2023-11-22T06:01:46;4.70;99.90
53520;DHT22;39397;53.204;5.778;2023-11-22T06:04:17;4.70;99.90
53520;DHT22;39397;53.204;5.778;2023-11-22T06:06:49;4.80;99.90
53520;DHT22;39397;53.204;5.778;2023-11-22T06:09:16;6.10;99.90
53520;DHT22;39397;53.204;5.778;2023-11-22T06:11:42;4.60;99.90
53520;DHT22;39397;53.204;5.778;2023-11-22T06:14:18;4.50;99.90
53520;DHT22;39397;53.204;5.778;2023-11-22T06:16:52;6.40;99.90
53520;DHT22;39397;53.204;5.778;2023-11-22T06:19:25;4.90;99.90
53520;DHT22;39397;53.204;5.778;2023-11-22T06:21:52;7.40;99.90
53520;DHT22;39397;53.204;5.778;2023-11-22T06:24:18;6.60;99.90
53520;DHT22;39397;53.204;5.778;2023-11-22T06:27:06;6.80;99.90
53520;DHT22;39397;53.204;5.778;2023-11-22T06:29:36;4.50;99.90
53520;DHT22;39397;53.204;5.778;2023-11-22T06:35:24;4.30;99.90
53520;DHT22;39397;53.204;5.778;2023-11-22T06:37:55;3.50;99.90
53520;DHT22;39397;53.204;5.778;2023-11-22T06:40:28;4.00;99.90
53520;DHT22;39397;53.204;5.778;2023-11-22T06:45:31;4.20;99.90
53520;DHT22;39397;53.204;5.778;2023-11-22T06:48:11;1.70;99.90
53520;DHT22;39397;53.204;5.778;2023-11-22T06:50:42;4.30;99.90
53520;DHT22;39397;53.204;5.778;2023-11-22T06:53:11;5.40;99.90
53520;DHT22;39397;53.204;5.778;2023-11-22T06:55:49;4.00;99.90
53520;DHT22;39397;53.204;5.778;2023-11-22T06:58:27;4.30;99.90
53520;DHT22;39397;53.204;5.778;2023-11-22T07:03:42;4.10;99.90
53520;DHT22;39397;53.204;5.778;2023-11-22T07:06:09;5.10;99.90
53520;DHT22;39397;53.204;5.778;2023-11-22T07:08:36;6.70;99.90
53520;DHT22;39397;53.204;5.778;2023-11-22T07:14:02;5.00;99.90
53520;DHT22;39397;53.204;5.778;2023-11-22T07:16:38;4.20;99.90
53520;DHT22;39397;53.204;5.778;2023-11-22T07:19:04;5.20;99.90
53520;DHT22;39397;53.204;5.778;2023-11-22T07:21:32;4.10;99.90
53520;DHT22;39397;53.204;5.778;2023-11-22T07:23:59;5.30;99.90
53520;DHT22;39397;53.204;5.778;2023-11-22T07:26:25;6.50;99.90
53520;DHT22;39397;53.204;5.778;2023-11-22T07:28:55;5.20;99.90
53520;DHT22;39397;53.204;5.778;2023-11-22T07:31:20;6.50;99.90
53520;DHT22;39397;53.204;5.778;2023-11-22T07:33:48;4.20;99.90
53520;DHT22;39397;53.204;5.778;2023-11-22T07:36:14;4.40;99.90
53520;DHT22;39397;53.204;5.778;2023-11-22T07:38:47;3.60;99.90
53520;DHT22;39397;53.204;5.778;2023-11-22T07:41:20;4.20;99.90
53520;DHT22;39397;53.204;5.778;2023-11-22T07:43:47;4.40;99.90
53520;DHT22;39397;53.204;5.778;2023-11-22T07:46:12;4.30;99.90
53520;DHT22;39397;53.204;5.778;2023-11-22T07:48:44;4.30;99.90
53520;DHT22;39397;53.204;5.778;2023-11-22T07:51:14;4.70;99.90
53520;DHT22;39397;53.204;5.778;2023-11-22T07:53:43;4.40;99.90
53520;DHT22;39397;53.204;5.778;2023-11-22T07:56:10;6.40;99.90
53520;DHT22;39397;53.204;5.778;2023-11-22T07:58:37;4.90;99.90
53520;DHT22;39397;53.204;5.778;2023-11-22T08:01:03;4.50;99.90
53520;DHT22;39397;53.204;5.778;2023-11-22T08:03:39;4.60;99.90
53520;DHT22;39397;53.204;5.778;2023-11-22T08:06:07;4.30;99.90
53520;DHT22;39397;53.204;5.778;2023-11-22T08:08:35;4.50;99.90
53520;DHT22;39397;53.204;5.778;2023-11-22T08:11:04;4.70;99.90
53520;DHT22;39397;53.204;5.778;2023-11-22T08:13:30;4.50;99.90
53520;DHT22;39397;53.204;5.778;2023-11-22T08:15:57;4.60;99.90
53520;DHT22;39397;53.204;5.778;2023-11-22T08:18:23;4.90;99.90
53520;DHT22;39397;53.204;5.778;2023-11-22T08:20:49;5.70;99.90
53520;DHT22;39397;53.204;5.778;2023-11-22T08:23:15;6.30;99.90
53520;DHT22;39397;53.204;5.778;2023-11-22T08:28:16;4.60;99.90
53520;DHT22;39397;53.204;5.778;2023-11-22T08:30:57;5.50;99.90
53520;DHT22;39397;53.204;5.778;2023-11-22T08:33:23;6.80;99.90
53520;DHT22;39397;53.204;5.778;2023-11-22T08:35:49;4.80;99.90
53520;DHT22;39397;53.204;5.778;2023-11-22T08:38:18;5.70;99.90
53520;DHT22;39397;53.204;5.778;2023-11-22T08:40:58;4.80;99.90
53520;DHT22;39397;53.204;5.778;2023-11-22T08:43:25;5.20;99.90
53520;DHT22;39397;53.204;5.778;2023-11-22T08:45:53;7.30;99.90
53520;DHT22;39397;53.204;5.778;2023-11-22T08:48:22;5.10;99.90
53520;DHT22;39397;53.204;5.778;2023-11-22T08:50:48;4.70;99.90
53520;DHT22;39397;53.204;5.778;2023-11-22T08:53:19;4.90;99.90
53520;DHT22;39397;53.204;5.778;2023-11-22T08:55:47;6.90;99.90
53520;DHT22;39397;53.204;5.778;2023-11-22T08:58:13;3.20;99.90
53520;DHT22;39397;53.204;5.778;2023-11-22T09:00:40;6.10;99.90
53520;DHT22;39397;53.204;5.778;2023-11-22T09:03:10;6.20;99.90
53520;DHT22;39397;53.204;5.778;2023-11-22T09:05:42;5.50;99.90
53520;DHT22;39397;53.204;5.778;2023-11-22T09:08:09;5.30;99.90
53520;DHT22;39397;53.204;5.778;2023-11-22T09:10:43;5.20;99.90
53520;DHT22;39397;53.204;5.778;2023-11-22T09:13:10;7.20;99.90
53520;DHT22;39397;53.204;5.778;2023-11-22T09:15:40;5.30;99.90
53520;DHT22;39397;53.204;5.778;2023-11-22T09:18:14;7.10;99.90
53520;DHT22;39397;53.204;5.778;2023-11-22T09:20:42;5.30;99.90
53520;DHT22;39397;53.204;5.778;2023-11-22T09:23:10;5.30;99.90
53520;DHT22;39397;53.204;5.778;2023-11-22T09:25:37;6.30;99.90
53520;DHT22;39397;53.204;5.778;2023-11-22T09:28:03;5.30;99.90
53520;DHT22;39397;53.204;5.778;2023-11-22T09:30:35;5.40;99.90
53520;DHT22;39397;53.204;5.778;2023-11-22T09:33:23;6.00;99.90
53520;DHT22;39397;53.204;5.778;2023-11-22T09:35:49;7.40;99.90
53520;DHT22;39397;53.204;5.778;2023-11-22T09:38:16;7.80;99.90
53520;DHT22;39397;53.204;5.778;2023-11-22T09:41:03;7.80;99.90
53520;DHT22;39397;53.204;5.778;2023-11-22T09:43:32;3.50;99.90
53520;DHT22;39397;53.204;5.778;2023-11-22T09:45:58;5.50;99.90
53520;DHT22;39397;53.204;5.778;2023-11-22T09:48:24;6.80;99.90
53520;DHT22;39397;53.204;5.778;2023-11-22T09:51:23;6.30;99.90
53520;DHT22;39397;53.204;5.778;2023-11-22T09:53:59;8.00;99.90
53520;DHT22;39397;53.204;5.778;2023-11-22T09:56:27;5.90;99.90
53520;DHT22;39397;53.204;5.778;2023-11-22T09:58:55;5.70;99.90
53520;DHT22;39397;53.204;5.778;2023-11-22T10:01:24;7.70;99.90
53520;DHT22;39397;53.204;5.778;2023-11-22T10:03:50;6.70;99.90
53520;DHT22;39397;53.204;5.778;2023-11-22T10:08:45;5.90;99.90
53520;DHT22;39397;53.204;5.778;2023-11-22T10:11:18;6.90;99.90
53520;DHT22;39397;53.204;5.778;2023-11-22T10:13:49;6.30;99.90
53520;DHT22;39397;53.204;5.778;2023-11-22T10:16:16;6.10;99.90
53520;DHT22;39397;53.204;5.778;2023-11-22T10:18:44;6.40;99.90
53520;DHT22;39397;53.204;5.778;2023-11-22T10:23:59;6.20;99.90
53520;DHT22;39397;53.204;5.778;2023-11-22T10:26:26;6.30;99.90
53520;DHT22;39397;53.204;5.778;2023-11-22T10:28:54;6.60;99.90
53520;DHT22;39397;53.204;5.778;2023-11-22T10:31:21;6.30;99.90
53520;DHT22;39397;53.204;5.778;2023-11-22T10:33:47;8.10;99.90
53520;DHT22;39397;53.204;5.778;2023-11-22T10:36:14;7.70;99.90
53520;DHT22;39397;53.204;5.778;2023-11-22T10:38:47;6.00;99.90
53520;DHT22;39397;53.204;5.778;2023-11-22T10:41:14;7.00;99.90
53520;DHT22;39397;53.204;5.778;2023-11-22T10:43:40;6.60;99.90
53520;DHT22;39397;53.204;5.778;2023-11-22T10:46:08;5.90;99.90
53520;DHT22;39397;53.204;5.778;2023-11-22T10:48:38;6.50;99.90
53520;DHT22;39397;53.204;5.778;2023-11-22T10:51:05;6.70;99.90
53520;DHT22;39397;53.204;5.778;2023-11-22T10:53:33;4.50;99.90
53520;DHT22;39397;53.204;5.778;2023-11-22T10:58:32;6.70;99.90
53520;DHT22;39397;53.204;5.778;2023-11-22T11:01:00;7.40;99.90
53520;DHT22;39397;53.204;5.778;2023-11-22T11:03:28;6.70;99.90
53520;DHT22;39397;53.204;5.778;2023-11-22T11:06:13;7.60;99.90
53520;DHT22;39397;53.204;5.778;2023-11-22T11:08:41;6.60;99.90
53520;DHT22;39397;53.204;5.778;2023-11-22T11:11:09;6.70;99.90
53520;DHT22;39397;53.204;5.778;2023-11-22T11:13:35;7.30;99.90
53520;DHT22;39397;53.204;5.778;2023-11-22T11:16:02;8.40;99.90
53520;DHT22;39397;53.204;5.778;2023-11-22T11:18:34;6.80;99.90
53520;DHT22;39397;53.204;5.778;2023-11-22T11:21:07;6.80;99.90
53520;DHT22;39397;53.204;5.778;2023-11-22T11:23:33;6.80;99.90
53520;DHT22;39397;53.204;5.778;2023-11-22T11:26:09;8.10;99.90
53520;DHT22;39397;53.204;5.778;2023-11-22T11:28:47;6.80;99.90
53520;DHT22;39397;53.204;5.778;2023-11-22T11:31:22;6.90;99.90
53520;DHT22;39397;53.204;5.778;2023-11-22T11:33:55;6.90;99.90
53520;DHT22;39397;53.204;5.778;2023-11-22T11:39:16;7.00;99.90
53520;DHT22;39397;53.204;5.778;2023-11-22T11:41:42;7.10;99.90
53520;DHT22;39397;53.204;5.778;2023-11-22T11:44:12;7.10;99.90
53520;DHT22;39397;53.204;5.778;2023-11-22T11:46:39;7.50;99.90
53520;DHT22;39397;53.204;5.778;2023-11-22T11:49:08;7.30;99.90
53520;DHT22;39397;53.204;5.778;2023-11-22T11:51:39;7.40;99.90
53520;DHT22;39397;53.204;5.778;2023-11-22T11:54:12;7.30;99.90
53520;DHT22;39397;53.204;5.778;2023-11-22T11:56:38;7.30;99.90
53520;DHT22;39397;53.204;5.778;2023-11-22T11:59:04;8.40;99.90
53520;DHT22;39397;53.204;5.778;2023-11-22T12:01:30;7.30;99.90
53520;DHT22;39397;53.204;5.778;2023-11-22T12:04:02;7.30;99.90
53520;DHT22;39397;53.204;5.778;2023-11-22T12:06:28;7.10;99.90
53520;DHT22;39397;53.204;5.778;2023-11-22T12:08:56;5.30;99.90
53520;DHT22;39397;53.204;5.778;2023-11-22T12:11:22;7.10;99.90
53520;DHT22;39397;53.204;5.778;2023-11-22T12:13:55;7.60;99.90
53520;DHT22;39397;53.204;5.778;2023-11-22T12:16:24;7.10;99.90
53520;DHT22;39397;53.204;5.778;2023-11-22T12:18:51;7.20;99.90
53520;DHT22;39397;53.204;5.778;2023-11-22T12:21:18;7.10;99.90
53520;DHT22;39397;53.204;5.778;2023-11-22T12:23:46;7.10;99.90
53520;DHT22;39397;53.204;5.778;2023-11-22T12:26:16;7.20;99.90
53520;DHT22;39397;53.204;5.778;2023-11-22T12:28:56;7.10;99.90
53520;DHT22;39397;53.204;5.778;2023-11-22T12:31:43;5.50;99.90
53520;DHT22;39397;53.204;5.778;2023-11-22T12:34:18;8.20;99.90
53520;DHT22;39397;53.204;5.778;2023-11-22T12:36:46;7.70;99.90
53520;DHT22;39397;53.204;5.778;2023-11-22T12:39:15;7.00;99.90
53520;DHT22;39397;53.204;5.778;2023-11-22T12:41:51;7.00;99.90
53520;DHT22;39397;53.204;5.778;2023-11-22T12:44:18;6.90;99.90
53520;DHT22;39397;53.204;5.778;2023-11-22T12:46:52;7.10;99.90
53520;DHT22;39397;53.204;5.778;2023-11-22T12:49:29;7.20;99.90
53520;DHT22;39397;53.204;5.778;2023-11-22T12:51:58;6.80;99.90
53520;DHT22;39397;53.204;5.778;2023-11-22T12:54:31;6.70;99.90
53520;DHT22;39397;53.204;5.778;2023-11-22T12:57:01;5.70;99.90
53520;DHT22;39397;53.204;5.778;2023-11-22T12:59:45;7.00;99.90
53520;DHT22;39397;53.204;5.778;2023-11-22T13:02:11;6.50;99.90
53520;DHT22;39397;53.204;5.778;2023-11-22T13:04:37;6.80;99.90
53520;DHT22;39397;53.204;5.778;2023-11-22T13:07:03;6.70;99.90
53520;DHT22;39397;53.204;5.778;2023-11-22T13:09:29;6.90;99.90
53520;DHT22;39397;53.204;5.778;2023-11-22T13:12:00;9.20;99.90
53520;DHT22;39397;53.204;5.778;2023-11-22T13:14:26;6.70;99.90
53520;DHT22;39397;53.204;5.778;2023-11-22T13:17:00;8.30;99.90
53520;DHT22;39397;53.204;5.778;2023-11-22T13:19:36;6.60;99.90
53520;DHT22;39397;53.204;5.778;2023-11-22T13:22:06;6.30;99.90
53520;DHT22;39397;53.204;5.778;2023-11-22T13:24:33;6.90;99.90
53520;DHT22;39397;53.204;5.778;2023-11-22T13:26:59;6.70;99.90
53520;DHT22;39397;53.204;5.778;2023-11-22T13:29:25;4.80;99.90
53520;DHT22;39397;53.204;5.778;2023-11-22T13:31:57;6.80;99.90
53520;DHT22;39397;53.204;5.778;2023-11-22T13:34:23;6.70;99.90
53520;DHT22;39397;53.204;5.778;2023-11-22T13:36:51;7.60;99.90
53520;DHT22;39397;53.204;5.778;2023-11-22T13:39:17;6.90;99.90
53520;DHT22;39397;53.204;5.778;2023-11-22T13:41:43;7.10;99.90
53520;DHT22;39397;53.204;5.778;2023-11-22T13:44:12;8.10;99.90
53520;DHT22;39397;53.204;5.778;2023-11-22T13:46:40;6.80;99.90
53520;DHT22;39397;53.204;5.778;2023-11-22T13:49:06;5.40;99.90
53520;DHT22;39397;53.204;5.778;2023-11-22T13:51:32;6.80;99.90
53520;DHT22;39397;53.204;5.778;2023-11-22T13:54:01;6.80;99.90
53520;DHT22;39397;53.204;5.778;2023-11-22T13:56:28;6.80;99.90
53520;DHT22;39397;53.204;5.778;2023-11-22T13:58:57;7.10;99.90
53520;DHT22;39397;53.204;5.778;2023-11-22T14:01:25;6.70;99.90
53520;DHT22;39397;53.204;5.778;2023-11-22T14:03:52;7.70;99.90
53520;DHT22;39397;53.204;5.778;2023-11-22T14:06:18;6.70;99.90
53520;DHT22;39397;53.204;5.778;2023-11-22T14:08:44;7.30;99.90
53520;DHT22;39397;53.204;5.778;2023-11-22T14:11:10;8.90;99.90
53520;DHT22;39397;53.204;5.778;2023-11-22T14:13:38;7.40;99.90
53520;DHT22;39397;53.204;5.778;2023-11-22T14:16:05;6.80;99.90
53520;DHT22;39397;53.204;5.778;2023-11-22T14:18:37;6.90;99.90
53520;DHT22;39397;53.204;5.778;2023-11-22T14:21:06;6.90;99.90
53520;DHT22;39397;53.204;5.778;2023-11-22T14:23:35;9.30;99.90
53520;DHT22;39397;53.204;5.778;2023-11-22T14:26:02;9.40;99.90
53520;DHT22;39397;53.204;5.778;2023-11-22T14:28:29;6.90;99.90
53520;DHT22;39397;53.204;5.778;2023-11-22T14:30:55;6.30;99.90
53520;DHT22;39397;53.204;5.778;2023-11-22T14:33:22;6.90;99.90
53520;DHT22;39397;53.204;5.778;2023-11-22T14:35:47;7.90;99.90
53520;DHT22;39397;53.204;5.778;2023-11-22T14:38:13;7.10;99.90
53520;DHT22;39397;53.204;5.778;2023-11-22T14:40:43;6.90;99.90
53520;DHT22;39397;53.204;5.778;2023-11-22T14:43:14;9.00;99.90
53520;DHT22;39397;53.204;5.778;2023-11-22T14:45:42;7.80;99.90
53520;DHT22;39397;53.204;5.778;2023-11-22T14:48:16;7.30;99.90
53520;DHT22;39397;53.204;5.778;2023-11-22T14:50:46;6.80;99.90
53520;DHT22;39397;53.204;5.778;2023-11-22T14:53:22;7.30;99.90
53520;DHT22;39397;53.204;5.778;2023-11-22T14:55:50;7.10;99.90
53520;DHT22;39397;53.204;5.778;2023-11-22T14:58:26;7.10;99.90
53520;DHT22;39397;53.204;5.778;2023-11-22T15:00:51;7.30;99.90
53520;DHT22;39397;53.204;5.778;2023-11-22T15:03:17;6.80;99.90
53520;DHT22;39397;53.204;5.778;2023-11-22T15:05:43;6.80;99.90
53520;DHT22;39397;53.204;5.778;2023-11-22T15:08:09;6.80;99.90
53520;DHT22;39397;53.204;5.778;2023-11-22T15:10:38;6.70;99.90
53520;DHT22;39397;53.204;5.778;2023-11-22T15:13:10;6.90;99.90
53520;DHT22;39397;53.204;5.778;2023-11-22T15:15:46;6.80;99.90
53520;DHT22;39397;53.204;5.778;2023-11-22T15:18:14;5.10;99.90
53520;DHT22;39397;53.204;5.778;2023-11-22T15:20:48;6.40;99.90
53520;DHT22;39397;53.204;5.778;2023-11-22T15:23:15;6.70;99.90
53520;DHT22;39397;53.204;5.778;2023-11-22T15:25:50;6.60;99.90
53520;DHT22;39397;53.204;5.778;2023-11-22T15:28:16;6.40;99.90
53520;DHT22;39397;53.204;5.778;2023-11-22T15:30:52;6.30;99.90
53520;DHT22;39397;53.204;5.778;2023-11-22T15:33:25;6.90;99.90
53520;DHT22;39397;53.204;5.778;2023-11-22T15:35:51;6.70;99.90
53520;DHT22;39397;53.204;5.778;2023-11-22T15:38:20;6.80;99.90
53520;DHT22;39397;53.204;5.778;2023-11-22T15:40:51;6.80;99.90
53520;DHT22;39397;53.204;5.778;2023-11-22T15:46:34;6.00;99.90
53520;DHT22;39397;53.204;5.778;2023-11-22T15:49:02;5.80;99.90
53520;DHT22;39397;53.204;5.778;2023-11-22T15:51:31;7.20;99.90
53520;DHT22;39397;53.204;5.778;2023-11-22T15:53:57;8.00;99.90
53520;DHT22;39397;53.204;5.778;2023-11-22T15:56:24;9.80;99.90
53520;DHT22;39397;53.204;5.778;2023-11-22T15:59:03;8.30;99.90
53520;DHT22;39397;53.204;5.778;2023-11-22T16:01:32;7.40;99.90
53520;DHT22;39397;53.204;5.778;2023-11-22T16:04:07;6.50;99.90
53520;DHT22;39397;53.204;5.778;2023-11-22T16:06:41;7.00;99.90
53520;DHT22;39397;53.204;5.778;2023-11-22T16:09:19;7.00;99.90
53520;DHT22;39397;53.204;5.778;2023-11-22T16:11:48;7.10;99.90
53520;DHT22;39397;53.204;5.778;2023-11-22T16:14:20;7.30;99.90
53520;DHT22;39397;53.204;5.778;2023-11-22T16:16:57;6.90;99.90
53520;DHT22;39397;53.204;5.778;2023-11-22T16:19:26;5.50;99.90
53520;DHT22;39397;53.204;5.778;2023-11-22T16:22:02;7.30;99.90
53520;DHT22;39397;53.204;5.778;2023-11-22T16:24:31;7.10;99.90
53520;DHT22;39397;53.204;5.778;2023-11-22T16:27:02;5.70;99.90
53520;DHT22;39397;53.204;5.778;2023-11-22T16:29:30;7.00;99.90
53520;DHT22;39397;53.204;5.778;2023-11-22T16:32:03;7.20;99.90
53520;DHT22;39397;53.204;5.778;2023-11-22T16:34:32;7.50;99.90
53520;DHT22;39397;53.204;5.778;2023-11-22T16:37:07;7.20;99.90
53520;DHT22;39397;53.204;5.778;2023-11-22T16:39:42;6.60;99.90
53520;DHT22;39397;53.204;5.778;2023-11-22T16:42:17;7.10;99.90
53520;DHT22;39397;53.204;5.778;2023-11-22T16:44:44;7.10;99.90
53520;DHT22;39397;53.204;5.778;2023-11-22T16:47:12;7.20;99.90
53520;DHT22;39397;53.204;5.778;2023-11-22T16:49:44;7.40;99.90
53520;DHT22;39397;53.204;5.778;2023-11-22T16:52:18;7.10;99.90
53520;DHT22;39397;53.204;5.778;2023-11-22T16:54:53;7.30;99.90
53520;DHT22;39397;53.204;5.778;2023-11-22T16:57:25;7.40;99.90
53520;DHT22;39397;53.204;5.778;2023-11-22T17:00:06;7.50;99.90
53520;DHT22;39397;53.204;5.778;2023-11-22T17:02:38;7.40;99.90
53520;DHT22;39397;53.204;5.778;2023-11-22T17:05:06;7.50;99.90
53520;DHT22;39397;53.204;5.778;2023-11-22T17:07:47;7.10;99.90
53520;DHT22;39397;53.204;5.778;2023-11-22T17:10:17;7.80;99.90